createdAt,value
2023-03-23T15:58:58.338Z,12.66
2023-03-23T16:01:08.480Z,12.63
2023-03-23T16:03:17.747Z,12.67
2023-03-23T16:05:21.593Z,12.68
2023-03-23T16:07:28.723Z,12.72
2023-03-23T16:09:33.170Z,12.78
2023-03-23T16:11:37.733Z,12.85
2023-03-23T16:13:43.142Z,12.89
2023-03-23T16:15:49.505Z,12.91
2023-03-23T16:17:54.137Z,12.86
2023-03-23T16:19:58.617Z,12.78
2023-03-23T16:22:03.165Z,12.67
2023-03-23T16:24:10.238Z,12.51
2023-03-23T16:26:14.693Z,12.35
2023-03-23T16:28:20.933Z,12.19
2023-03-23T16:30:27.898Z,12.04
2023-03-23T16:34:37.324Z,11.82
2023-03-23T16:36:42.386Z,11.75
2023-03-23T16:38:49.813Z,11.70
2023-03-23T16:40:58.308Z,11.65
2023-03-23T16:43:08.246Z,11.64
2023-03-23T16:45:13.875Z,11.69
2023-03-23T16:47:19.299Z,11.77
2023-03-23T16:49:24.803Z,11.87
2023-03-23T16:51:28.492Z,11.92
2023-03-23T16:53:34.219Z,11.96
2023-03-23T16:55:39.285Z,11.91
2023-03-23T16:57:45.736Z,11.85
2023-03-23T16:59:49.829Z,11.78
2023-03-23T17:01:54.641Z,11.71
2023-03-23T17:04:00.573Z,11.64
2023-03-23T17:06:06.378Z,11.59
2023-03-23T17:08:11.035Z,11.56
2023-03-23T17:10:16.351Z,11.57
2023-03-23T17:12:20.280Z,11.56
2023-03-23T17:14:26.396Z,11.52
2023-03-23T17:16:30.789Z,11.53
2023-03-23T17:18:34.336Z,11.56
2023-03-23T17:20:41.909Z,11.63
2023-03-23T17:22:50.109Z,11.66
2023-03-23T17:24:54.895Z,11.72
2023-03-23T17:26:59.906Z,11.63
2023-03-23T17:29:04.389Z,11.52
2023-03-23T17:31:09.681Z,11.45
2023-03-23T17:33:14.498Z,11.40
2023-03-23T17:35:18.821Z,11.32
2023-03-23T17:37:23.831Z,11.27
2023-03-23T17:39:28.555Z,11.24
2023-03-23T17:41:32.408Z,11.17
2023-03-23T17:43:37.384Z,11.11
2023-03-23T17:45:45.064Z,11.10
2023-03-23T17:47:53.918Z,11.09
2023-03-23T17:49:59.024Z,11.06
2023-03-23T17:52:03.783Z,11.04
2023-03-23T17:54:08.762Z,11.03
2023-03-23T17:56:12.375Z,11.00
2023-03-23T17:58:16.938Z,10.99
2023-03-23T18:00:22.233Z,10.89
2023-03-23T18:02:25.929Z,10.83
2023-03-23T18:04:31.385Z,10.76
2023-03-23T18:06:34.941Z,10.65
2023-03-23T18:08:39.407Z,10.59
2023-03-23T18:10:43.203Z,10.57
2023-03-23T18:12:47.252Z,10.52
2023-03-23T18:14:51.161Z,10.46
2023-03-23T18:16:55.830Z,10.43
2023-03-23T18:18:59.687Z,10.40
2023-03-23T18:21:08.710Z,10.36
2023-03-23T18:23:12.350Z,10.29
2023-03-23T18:25:16.459Z,10.26
2023-03-23T18:27:20.767Z,10.22
2023-03-23T18:29:25.231Z,10.19
2023-03-23T18:31:29.370Z,10.14
2023-03-23T18:33:32.738Z,10.11
2023-03-23T18:35:36.982Z,10.08
2023-03-23T18:37:43.870Z,10.03
2023-03-23T18:39:47.905Z,9.99
2023-03-23T18:41:51.897Z,9.96
2023-03-23T18:43:57.706Z,9.91
2023-03-23T18:46:02.023Z,9.87
2023-03-23T18:48:06.359Z,9.80
2023-03-23T18:50:12.468Z,9.76
2023-03-23T18:52:16.840Z,9.75
2023-03-23T18:54:22.115Z,9.71
2023-03-23T18:56:26.879Z,9.70
2023-03-23T18:58:30.562Z,9.69
2023-03-23T19:00:34.917Z,9.69
2023-03-23T19:02:40.227Z,9.71
2023-03-23T19:04:43.854Z,9.71
2023-03-23T19:06:47.479Z,9.73
2023-03-23T19:08:53.883Z,9.74
2023-03-23T19:11:03.943Z,9.77
2023-03-23T19:13:08.932Z,9.81
2023-03-23T19:15:13.267Z,9.83
2023-03-23T19:17:17.861Z,9.86
2023-03-23T19:19:22.129Z,9.83
2023-03-23T19:21:29.806Z,9.82
2023-03-23T19:23:35.543Z,9.81
2023-03-23T19:25:39.228Z,9.77
2023-03-23T19:28:27.461Z,9.72
2023-03-23T19:30:10.914Z,9.67
2023-03-23T19:32:14.886Z,9.65
2023-03-23T19:34:19.539Z,9.64
2023-03-23T19:36:24.315Z,9.59
2023-03-23T19:38:28.616Z,9.54
2023-03-23T19:40:40.236Z,9.50
2023-03-23T19:42:47.840Z,9.48
2023-03-23T19:44:53.445Z,9.46
2023-03-23T19:46:57.809Z,9.43
2023-03-23T19:49:02.436Z,9.40
2023-03-23T19:51:07.317Z,9.37
2023-03-23T19:53:13.255Z,9.34
2023-03-23T19:55:18.249Z,9.31
2023-03-23T19:57:23.878Z,9.30
2023-03-23T19:59:31.297Z,9.28
2023-03-23T20:01:36.592Z,9.24
2023-03-23T20:03:41.957Z,9.18
2023-03-23T20:05:46.004Z,9.10
2023-03-23T20:07:51.974Z,9.06
2023-03-23T20:09:56.113Z,9.02
2023-03-23T20:12:01.223Z,8.96
2023-03-23T20:14:04.992Z,8.88
2023-03-23T20:16:12.265Z,8.79
2023-03-23T20:18:18.940Z,8.69
2023-03-23T20:20:23.434Z,8.58
2023-03-23T20:22:29.020Z,8.51
2023-03-23T20:24:33.850Z,8.43
2023-03-23T20:26:39.124Z,8.37
2023-03-23T20:28:46.806Z,8.32
2023-03-23T20:31:19.435Z,8.26
2023-03-23T20:33:30.659Z,8.19
2023-03-23T20:35:35.030Z,8.13
2023-03-23T20:37:41.343Z,8.09
2023-03-23T20:39:48.165Z,8.06
2023-03-23T20:41:54.888Z,8.02
2023-03-23T20:44:00.398Z,7.99
2023-03-23T20:46:07.785Z,7.97
2023-03-23T20:48:12.643Z,7.96
2023-03-23T20:50:18.794Z,7.92
2023-03-23T20:52:23.219Z,7.90
2023-03-23T20:54:29.109Z,7.88
2023-03-23T20:56:35.655Z,7.87
2023-03-23T20:58:41.137Z,7.85
2023-03-23T21:00:47.377Z,7.82
2023-03-23T21:02:54.358Z,7.81
2023-03-23T21:04:58.390Z,7.79
2023-03-23T21:07:04.038Z,7.78
2023-03-23T21:09:09.913Z,7.76
2023-03-23T21:11:19.355Z,7.76
2023-03-23T21:13:23.314Z,7.74
2023-03-23T21:15:28.960Z,7.72
2023-03-23T21:17:32.760Z,7.69
2023-03-23T21:19:37.214Z,7.68
2023-03-23T21:21:56.842Z,7.67
2023-03-23T21:24:03.233Z,7.68
2023-03-23T21:26:11.779Z,7.66
2023-03-23T21:28:17.523Z,7.65
2023-03-23T21:30:22.775Z,7.60
2023-03-23T21:32:27.110Z,7.60
2023-03-23T21:34:32.678Z,7.58
2023-03-23T21:36:37.486Z,7.55
2023-03-23T21:38:41.302Z,7.55
2023-03-23T21:40:49.720Z,7.53
2023-03-23T21:42:54.123Z,7.52
2023-03-23T21:45:02.885Z,7.51
2023-03-23T21:47:06.747Z,7.51
2023-03-23T21:49:14.954Z,7.49
2023-03-23T21:51:22.128Z,7.48
2023-03-23T21:53:27.528Z,7.47
2023-03-23T21:55:31.959Z,7.47
2023-03-23T21:57:38.329Z,7.45
2023-03-23T21:59:43.213Z,7.43
2023-03-23T22:01:48.218Z,7.40
2023-03-23T22:03:53.751Z,7.39
2023-03-23T22:05:57.848Z,7.38
2023-03-23T22:08:01.925Z,7.36
2023-03-23T22:10:06.515Z,7.36
2023-03-23T22:12:10.700Z,7.34
2023-03-23T22:14:16.518Z,7.33
2023-03-23T22:16:21.624Z,7.33
2023-03-23T22:18:25.995Z,7.31
2023-03-23T22:20:30.474Z,7.30
2023-03-23T22:22:35.136Z,7.30
2023-03-23T22:24:39.248Z,7.30
2023-03-23T22:26:43.112Z,7.30
2023-03-23T22:28:49.835Z,7.28
2023-03-23T22:30:55.945Z,7.28
2023-03-23T22:32:59.695Z,7.28
2023-03-23T22:35:03.806Z,7.29
2023-03-23T22:37:08.596Z,7.28
2023-03-23T22:39:12.819Z,7.28
2023-03-23T22:41:19.010Z,7.26
2023-03-23T22:43:23.400Z,7.25
2023-03-23T22:45:28.242Z,7.26
2023-03-23T22:47:34.638Z,7.25
2023-03-23T22:49:38.627Z,7.24
2023-03-23T22:51:43.079Z,7.23
2023-03-23T22:53:47.985Z,7.21
2023-03-23T22:55:55.256Z,7.22
2023-03-23T22:57:58.830Z,7.21
2023-03-23T23:00:02.848Z,7.21
2023-03-23T23:02:07.038Z,7.21
2023-03-23T23:04:12.066Z,7.21
2023-03-23T23:06:17.502Z,7.19
2023-03-23T23:08:21.507Z,7.18
2023-03-23T23:10:25.697Z,7.17
2023-03-23T23:12:31.992Z,7.15
2023-03-23T23:14:36.279Z,7.15
2023-03-23T23:16:40.405Z,7.13
2023-03-23T23:18:44.147Z,7.11
2023-03-23T23:20:52.401Z,7.10
2023-03-23T23:22:56.045Z,7.09
2023-03-23T23:24:59.832Z,7.09
2023-03-23T23:27:03.964Z,7.07
2023-03-23T23:29:07.805Z,7.05
2023-03-23T23:31:22.678Z,7.03
2023-03-23T23:33:27.018Z,7.03
2023-03-23T23:35:31.033Z,7.02
2023-03-23T23:37:36.033Z,7.02
2023-03-23T23:39:41.435Z,7.01
2023-03-23T23:41:45.313Z,7.01
2023-03-23T23:43:54.701Z,6.99
2023-03-23T23:46:00.347Z,7.00
2023-03-23T23:48:04.135Z,7.00
2023-03-23T23:50:09.934Z,7.00
2023-03-23T23:52:13.867Z,7.01
2023-03-23T23:54:22.889Z,7.01
2023-03-23T23:56:26.953Z,7.02
2023-03-23T23:58:30.614Z,7.02
